Time;durP1;ratioP1;P1;durP2;ratioP2;P2;SDS_P1;SDS_P2;PMS_P1;PMS_P2;Temp;Humidity;BMP_temperature;BMP_pressure;BME280_temperature;BME280_humidity;BME280_pressure;Samples;Min_cycle;Max_cycle;Signal;HPM_P1;HPM_P2
2022/01/21 00:01:15;;;;;;;;;7.67;7.67;;;;;4.22;64.29;100113.75;5013530;28;45503;-80
2022/01/21 00:03:41;;;;;;;;;8.00;8.00;;;;;4.20;64.05;100135.50;5028202;28;45549;-80
2022/01/21 00:06:07;;;;;;;;;7.33;7.00;;;;;4.20;64.01;100119.84;5033549;28;45340;-79
2022/01/21 00:08:38;;;;;;;;;6.33;6.33;;;;;4.21;64.25;100118.97;5021577;28;45407;-79
2022/01/21 00:11:04;;;;;;;;;4.33;3.33;;;;;4.21;64.14;100127.66;5021556;28;45394;-79
2022/01/21 00:13:36;;;;;;;;;6.67;6.67;;;;;4.19;64.60;100107.66;5013226;28;47501;-79
2022/01/21 00:16:07;;;;;;;;;7.67;6.67;;;;;4.17;65.17;100114.63;5011439;28;45306;-79
2022/01/21 00:18:35;;;;;;;;;7.00;5.67;;;;;4.15;64.95;100114.63;5034694;28;45275;-79
2022/01/21 00:31:58;;;;;;;;;9.67;8.00;;;;;4.04;65.41;100091.97;5022785;28;45422;-80
2022/01/21 00:34:24;;;;;;;;;8.00;5.00;;;;;3.99;65.70;100105.03;5009903;28;47373;-79
2022/01/21 00:36:49;;;;;;;;;8.33;6.67;;;;;3.97;65.77;100109.38;5026168;28;45153;-79
2022/01/21 00:39:15;;;;;;;;;8.00;6.67;;;;;3.94;65.33;100098.94;5033971;28;45455;-79
2022/01/21 00:41:56;;;;;;;;;9.33;7.67;;;;;3.92;65.98;100090.22;5022704;28;45313;-79
2022/01/21 00:44:21;;;;;;;;;2.00;2.00;;;;;3.90;65.74;100099.78;5021160;28;46279;-79
2022/01/21 00:46:48;;;;;;;;;1.67;1.67;;;;;3.91;65.36;100087.59;5037302;28;45507;-79
2022/01/21 00:49:15;;;;;;;;;7.00;7.00;;;;;3.89;65.48;100071.06;5031105;28;45372;-79
2022/01/21 00:51:40;;;;;;;;;4.67;4.00;;;;;3.87;65.76;100065.84;5036229;28;45536;-79
2022/01/21 00:54:06;;;;;;;;;14.00;9.67;;;;;3.84;65.93;100071.97;5006543;28;48439;-80
2022/01/21 00:56:31;;;;;;;;;9.67;7.67;;;;;3.82;66.30;100078.91;5035997;28;45393;-79
2022/01/21 00:58:57;;;;;;;;;14.00;12.33;;;;;3.82;66.12;100071.09;5007272;28;45422;-79
2022/01/21 01:01:22;;;;;;;;;6.67;5.00;;;;;3.83;65.52;100058.91;5006452;28;45422;-80
2022/01/21 01:03:47;;;;;;;;;8.67;7.00;;;;;3.79;65.97;100059.78;5031410;28;46363;-79
2022/01/21 01:06:13;;;;;;;;;14.00;14.00;;;;;3.79;65.92;100071.06;5031433;28;45637;-79
2022/01/21 01:08:39;;;;;;;;;7.33;5.00;;;;;3.76;66.02;100060.63;5024640;28;45376;-80
2022/01/21 01:21:47;;;;;;;;;10.67;7.67;;;;;3.84;65.86;100116.31;5017649;28;45652;-79
2022/01/21 01:29:40;;;;;;;;;8.00;7.00;;;;;3.76;66.83;100078.00;5024149;28;45418;-79
2022/01/21 01:32:06;;;;;;;;;7.00;7.00;;;;;3.74;66.70;100064.97;5024075;28;45560;-79
2022/01/21 01:34:32;;;;;;;;;5.67;5.67;;;;;3.73;65.96;100104.06;5015885;28;47164;-79
2022/01/21 01:37:01;;;;;;;;;4.67;4.67;;;;;3.73;66.16;100063.22;5029957;28;45406;-79
2022/01/21 01:39:42;;;;;;;;;6.67;6.67;;;;;3.72;66.67;100064.09;5024507;28;45242;-79
2022/01/21 01:50:03;;;;;;;;;11.33;7.33;;;;;3.75;66.33;100069.31;5023751;28;45390;-79
2022/01/21 01:52:29;;;;;;;;;6.33;6.33;;;;;3.72;66.15;100097.13;5015582;28;45399;-79
2022/01/21 01:54:56;;;;;;;;;5.33;3.00;;;;;3.73;66.17;100083.22;5030589;28;45401;-79
2022/01/21 01:57:22;;;;;;;;;9.67;9.00;;;;;3.71;66.05;100097.97;5035916;28;45409;-80
2022/01/21 01:59:48;;;;;;;;;2.00;0.00;;;;;3.70;65.77;100075.38;5005335;28;45438;-79
2022/01/21 02:02:16;;;;;;;;;11.33;10.67;;;;;3.73;66.50;100065.84;5028319;28;45561;-80
2022/01/21 02:04:44;;;;;;;;;6.67;5.67;;;;;3.70;66.08;100058.00;5034745;28;48011;-80
2022/01/21 02:07:10;;;;;;;;;11.00;8.33;;;;;3.72;65.87;100064.09;5024142;28;45381;-79
2022/01/21 02:09:36;;;;;;;;;10.67;7.00;;;;;3.70;65.93;100063.22;5016097;28;45354;-80
2022/01/21 02:12:03;;;;;;;;;8.67;8.00;;;;;3.69;65.77;100084.94;5035452;28;45432;-79
2022/01/21 02:14:33;;;;;;;;;1.33;1.00;;;;;3.67;65.35;100057.16;5036794;28;46671;-80
2022/01/21 02:22:10;;;;;;;;;7.00;5.00;;;;;3.68;64.79;100075.41;5027567;28;45329;-79
2022/01/21 02:24:48;;;;;;;;;6.67;6.67;;;;;3.72;64.03;100105.81;5036348;28;45335;-79
2022/01/21 02:27:14;;;;;;;;;6.33;3.00;;;;;3.74;64.30;100038.88;5036663;28;45506;-79
2022/01/21 02:29:48;;;;;;;;;3.00;3.00;;;;;3.74;64.07;100114.50;5034936;28;45361;-79
2022/01/21 02:32:15;;;;;;;;;8.67;7.00;;;;;3.71;63.43;100066.69;5036086;28;45512;-79
2022/01/21 02:34:41;;;;;;;;;7.00;3.00;;;;;3.70;63.29;100052.78;5018628;28;46512;-79
2022/01/21 02:37:09;;;;;;;;;7.00;5.00;;;;;3.68;63.17;100080.63;5021223;28;45444;-79
2022/01/21 02:39:35;;;;;;;;;3.67;2.33;;;;;3.72;63.23;100063.22;5034956;28;45235;-79
2022/01/21 02:42:00;;;;;;;;;7.00;5.00;;;;;3.74;63.24;100061.47;5022657;28;45518;-78
2022/01/21 02:44:26;;;;;;;;;3.67;3.33;;;;;3.72;63.07;100047.56;5036115;28;45371;-79
2022/01/21 02:46:58;;;;;;;;;2.00;1.00;;;;;3.72;63.30;100058.00;5035061;28;45232;-79
2022/01/21 02:49:24;;;;;;;;;7.33;6.00;;;;;3.70;63.09;100050.16;5034951;28;45485;-79
2022/01/21 02:51:54;;;;;;;;;6.67;3.00;;;;;3.70;62.32;100059.72;5034332;28;45428;-79
2022/01/21 02:54:20;;;;;;;;;5.00;4.67;;;;;3.68;62.36;100057.16;5027186;28;46949;-79
2022/01/21 02:56:46;;;;;;;;;3.00;1.00;;;;;3.66;62.65;100061.47;5013635;28;45983;-79
2022/01/21 02:59:12;;;;;;;;;5.00;5.00;;;;;3.66;61.14;100061.47;5014910;28;45548;-79
2022/01/21 03:01:41;;;;;;;;;4.67;3.00;;;;;3.67;61.25;100075.41;5012081;28;45279;-79
2022/01/21 03:04:09;;;;;;;;;2.67;2.67;;;;;3.65;61.54;100061.47;5027084;28;45550;-79
2022/01/21 03:06:37;;;;;;;;;3.33;2.00;;;;;3.64;61.48;100062.34;5032005;28;45387;-79
2022/01/21 03:09:06;;;;;;;;;0.00;0.00;;;;;3.63;60.27;100071.03;5014057;28;45388;-79
2022/01/21 03:11:31;;;;;;;;;2.00;2.00;;;;;3.62;60.43;100066.69;5028791;28;45439;-79
2022/01/21 03:13:57;;;;;;;;;9.33;3.00;;;;;3.60;61.43;100076.22;5025575;28;46304;-80
2022/01/21 03:16:24;;;;;;;;;0.00;0.00;;;;;3.57;59.96;100058.84;5034162;28;45356;-80
2022/01/21 03:18:50;;;;;;;;;2.33;2.00;;;;;3.55;60.17;100057.94;5023865;28;45407;-79
2022/01/21 03:21:16;;;;;;;;;2.00;2.00;;;;;3.55;59.76;100057.94;5028055;28;45415;-79
2022/01/21 03:23:46;;;;;;;;;5.33;3.00;;;;;3.56;59.91;100066.66;5025866;28;45390;-79
2022/01/21 03:26:14;;;;;;;;;2.00;2.00;;;;;3.54;59.76;100061.44;5021933;28;45522;-79
2022/01/21 03:28:40;;;;;;;;;2.67;2.00;;;;;3.53;59.57;100062.28;5024194;28;45437;-79
2022/01/21 03:31:06;;;;;;;;;2.33;2.00;;;;;3.53;58.95;100054.47;5018928;28;45612;-79
2022/01/21 03:33:31;;;;;;;;;0.67;0.67;;;;;3.53;58.75;100059.69;5035355;28;46459;-79
2022/01/21 03:35:57;;;;;;;;;2.67;1.00;;;;;3.52;59.67;100054.50;5035141;28;45512;-80
2022/01/21 03:38:26;;;;;;;;;2.67;2.67;;;;;3.53;58.75;100048.38;5022704;28;45887;-79
2022/01/21 03:40:52;;;;;;;;;2.67;1.33;;;;;3.53;59.04;100048.38;5030950;28;45530;-80
2022/01/21 03:43:19;;;;;;;;;2.33;1.67;;;;;3.54;58.18;100042.31;5027231;28;45505;-79
2022/01/21 03:45:45;;;;;;;;;2.00;2.00;;;;;3.60;59.93;100043.22;5022129;28;45444;-80
2022/01/21 03:48:10;;;;;;;;;3.33;2.00;;;;;3.63;60.05;100045.81;5023186;28;45557;-79
2022/01/21 03:50:36;;;;;;;;;3.00;2.67;;;;;3.63;56.91;100056.25;5034095;28;45513;-80
2022/01/21 03:53:03;;;;;;;;;1.00;1.00;;;;;3.65;57.71;100045.84;5022822;28;45359;-80
2022/01/21 03:55:34;;;;;;;;;2.00;2.00;;;;;3.64;57.17;100047.56;5030392;28;45251;-79
2022/01/21 03:58:01;;;;;;;;;3.00;3.00;;;;;3.61;57.24;100060.59;5027474;28;45398;-80
2022/01/21 04:00:35;;;;;;;;;2.00;2.00;;;;;3.61;57.26;100050.16;5013759;28;45498;-80
2022/01/21 04:03:03;;;;;;;;;2.00;2.00;;;;;3.60;57.42;100056.25;5029327;28;45419;-80
2022/01/21 04:05:29;;;;;;;;;2.00;2.00;;;;;3.59;57.49;100046.69;5017213;28;45460;-79
2022/01/21 04:07:55;;;;;;;;;3.00;3.00;;;;;3.56;57.05;100051.88;5014982;28;45268;-79
2022/01/21 04:10:21;;;;;;;;;2.67;1.33;;;;;3.58;56.50;100059.69;5033963;28;45480;-80
2022/01/21 04:12:46;;;;;;;;;3.00;3.00;;;;;3.58;57.27;100054.50;5033658;28;45363;-80
2022/01/21 04:15:13;;;;;;;;;2.00;2.00;;;;;3.54;56.54;100056.22;5021682;28;45433;-80
2022/01/21 04:17:38;;;;;;;;;3.33;1.00;;;;;3.51;56.54;100035.38;5020205;28;45261;-80
2022/01/21 04:20:06;;;;;;;;;1.00;1.00;;;;;3.53;56.50;100031.00;5034068;28;45358;-80
2022/01/21 04:22:32;;;;;;;;;1.67;1.00;;;;;3.55;56.64;100034.50;5014314;28;47165;-80
2022/01/21 04:24:59;;;;;;;;;1.00;1.00;;;;;3.51;56.46;100032.78;5026883;28;45442;-80
2022/01/21 04:27:24;;;;;;;;;3.00;1.00;;;;;3.54;56.34;100042.31;5031898;28;45379;-80
2022/01/21 04:29:50;;;;;;;;;0.00;0.00;;;;;3.51;56.23;100058.84;5023312;28;45271;-79
2022/01/21 04:32:15;;;;;;;;;2.00;1.00;;;;;3.47;56.09;100050.13;5033279;28;45681;-80
2022/01/21 04:34:41;;;;;;;;;2.67;2.67;;;;;3.47;55.36;100050.13;5022981;28;45217;-80
2022/01/21 04:37:10;;;;;;;;;2.00;2.00;;;;;3.48;55.63;100051.88;5033954;28;45423;-79
2022/01/21 04:39:41;;;;;;;;;1.00;1.00;;;;;3.50;56.52;100044.06;5033241;28;45483;-79
2022/01/21 04:47:35;;;;;;;;;2.00;1.00;;;;;3.51;56.16;100037.97;5014383;28;45510;-79
2022/01/21 04:50:01;;;;;;;;;1.00;1.00;;;;;3.46;56.03;100050.13;5014065;28;45543;-80
2022/01/21 04:52:27;;;;;;;;;7.67;3.00;;;;;3.45;55.24;100050.97;5034291;28;45307;-79
2022/01/21 04:54:52;;;;;;;;;1.33;1.33;;;;;3.45;55.67;100051.84;5034517;28;45354;-79
2022/01/21 04:57:19;;;;;;;;;3.67;2.00;;;;;3.43;55.57;100047.50;5016349;28;45513;-79
2022/01/21 04:59:45;;;;;;;;;1.33;1.33;;;;;3.45;55.79;100053.59;5016113;28;45508;-79
2022/01/21 05:02:11;;;;;;;;;2.00;2.00;;;;;3.42;56.18;100041.41;5033612;28;45496;-80
2022/01/21 05:04:37;;;;;;;;;2.00;1.00;;;;;3.44;55.72;100036.22;5032647;28;45592;-80
2022/01/21 05:07:06;;;;;;;;;2.00;2.00;;;;;3.43;54.96;100050.09;5032940;28;45497;-79
2022/01/21 05:09:34;;;;;;;;;1.00;1.00;;;;;3.41;54.63;100055.31;5034360;28;45193;-79
2022/01/21 05:12:07;;;;;;;;;2.00;0.00;;;;;3.39;54.82;100072.66;5025929;28;45480;-78
2022/01/21 05:17:12;;;;;;;;;1.00;0.33;;;;;3.34;54.64;100071.81;5033853;28;45471;-79
2022/01/21 05:19:38;;;;;;;;;1.00;1.00;;;;;3.33;55.60;100066.59;5033944;28;45434;-79
2022/01/21 05:22:04;;;;;;;;;2.67;2.67;;;;;3.31;55.41;100061.34;5031848;28;47078;-79
2022/01/21 05:24:30;;;;;;;;;3.00;2.00;;;;;3.29;55.73;100070.91;5033648;28;45473;-79
2022/01/21 05:26:58;;;;;;;;;0.33;0.33;;;;;3.29;55.35;100080.44;5034095;28;45342;-79
2022/01/21 05:29:26;;;;;;;;;3.00;1.33;;;;;3.32;55.15;100090.91;5020274;28;45331;-79
2022/01/21 05:31:52;;;;;;;;;1.00;1.00;;;;;3.27;54.60;100080.44;5007722;28;47366;-79
2022/01/21 05:34:18;;;;;;;;;2.33;1.67;;;;;3.26;55.39;100088.25;5034971;28;45497;-79
2022/01/21 05:36:43;;;;;;;;;2.00;1.33;;;;;3.25;54.55;100118.66;5037121;28;45431;-79
2022/01/21 05:39:14;;;;;;;;;3.33;2.00;;;;;3.28;54.49;100105.63;5037197;28;45415;-80
2022/01/21 05:41:40;;;;;;;;;1.67;1.67;;;;;3.29;55.15;100128.22;5037132;28;45717;-80
2022/01/21 05:44:13;;;;;;;;;3.33;1.67;;;;;3.27;54.54;100131.69;5022796;28;45374;-79
2022/01/21 05:49:19;;;;;;;;;1.00;1.00;;;;;3.20;55.46;100093.41;5028964;28;45214;-80
2022/01/21 05:51:45;;;;;;;;;1.67;1.33;;;;;3.23;54.88;100096.03;5024954;28;46381;-80
2022/01/21 05:54:12;;;;;;;;;2.67;2.00;;;;;3.26;55.67;100104.75;5036501;28;45400;-79
2022/01/21 05:56:38;;;;;;;;;5.67;2.00;;;;;3.27;54.34;100116.06;5036627;28;45358;-79
2022/01/21 05:59:08;;;;;;;;;3.00;2.00;;;;;3.24;55.07;100109.09;5028614;28;45419;-79
2022/01/21 06:01:35;;;;;;;;;2.67;2.00;;;;;3.20;54.31;100114.25;5031957;28;45498;-80
2022/01/21 06:04:02;;;;;;;;;3.00;2.00;;;;;3.19;55.43;100102.09;5026458;28;45306;-79
2022/01/21 06:06:28;;;;;;;;;1.33;1.33;;;;;3.18;54.91;100108.19;5030526;28;45472;-79
2022/01/21 06:08:54;;;;;;;;;2.00;2.00;;;;;3.16;55.68;100118.63;5025591;28;45232;-79
2022/01/21 06:11:19;;;;;;;;;2.00;1.00;;;;;3.18;55.73;100110.81;5035577;28;45636;-80
2022/01/21 06:13:46;;;;;;;;;4.00;1.67;;;;;3.18;55.18;100121.22;5034419;28;45402;-80
2022/01/21 06:16:12;;;;;;;;;2.00;2.00;;;;;3.19;55.59;100122.94;5018646;28;45463;-80
2022/01/21 06:18:37;;;;;;;;;2.00;2.00;;;;;3.20;55.97;100122.94;5027282;28;45402;-79
2022/01/21 06:21:03;;;;;;;;;1.00;1.00;;;;;3.21;55.87;100126.44;5031747;28;46606;-79
2022/01/21 06:23:28;;;;;;;;;6.00;4.67;;;;;3.20;55.44;100125.56;5035848;28;45488;-80
2022/01/21 06:25:54;;;;;;;;;1.00;1.00;;;;;3.20;55.16;100130.78;5022655;28;45480;-80
2022/01/21 06:28:19;;;;;;;;;1.00;1.00;;;;;3.18;54.95;100155.09;5026335;28;45527;-80
2022/01/21 06:30:45;;;;;;;;;2.00;1.00;;;;;3.11;55.25;100136.81;5029206;28;46044;-80
2022/01/21 06:33:10;;;;;;;;;2.00;1.00;;;;;3.11;55.87;100146.34;5007086;28;46168;-79
2022/01/21 06:35:36;;;;;;;;;2.00;1.00;;;;;3.08;55.69;100147.22;5016164;28;45430;-80
2022/01/21 06:38:01;;;;;;;;;1.00;1.00;;;;;3.06;55.23;100146.31;5027024;28;45414;-80
2022/01/21 06:40:27;;;;;;;;;1.00;1.00;;;;;3.05;56.06;100159.34;5017778;28;46583;-79
2022/01/21 06:42:52;;;;;;;;;1.67;1.67;;;;;3.03;55.62;100145.44;5035272;28;45323;-79
2022/01/21 06:45:19;;;;;;;;;5.67;5.67;;;;;3.03;56.47;100150.63;5021807;28;45491;-80
2022/01/21 06:47:44;;;;;;;;;5.67;5.00;;;;;3.00;56.97;100146.31;5026384;28;45592;-79
2022/01/21 06:50:10;;;;;;;;;1.67;1.67;;;;;3.01;56.88;100153.25;5028261;28;45909;-79
2022/01/21 06:52:36;;;;;;;;;1.67;1.00;;;;;3.02;56.46;100162.78;5023618;28;45366;-79
2022/01/21 06:55:02;;;;;;;;;1.67;1.67;;;;;3.02;55.76;100170.59;5035751;28;45416;-79
2022/01/21 06:57:29;;;;;;;;;5.00;3.00;;;;;2.98;55.99;100174.06;5028444;28;45409;-78
2022/01/21 06:59:56;;;;;;;;;4.33;2.00;;;;;2.97;56.26;100166.25;5017270;28;45421;-78
2022/01/21 07:02:22;;;;;;;;;2.33;2.00;;;;;2.98;56.22;100166.25;5026182;28;45454;-78
2022/01/21 07:04:48;;;;;;;;;3.00;1.67;;;;;2.97;56.18;100166.25;5026798;28;45232;-78
2022/01/21 07:07:14;;;;;;;;;0.00;0.00;;;;;2.96;56.49;100187.94;5022009;28;45382;-79
2022/01/21 07:09:41;;;;;;;;;2.00;1.00;;;;;2.92;56.28;100178.34;5030756;28;45416;-79
2022/01/21 07:12:07;;;;;;;;;2.00;2.00;;;;;2.90;56.49;100178.34;5034070;28;45479;-78
2022/01/21 07:14:32;;;;;;;;;3.67;2.00;;;;;2.87;55.64;100178.31;5020932;28;45397;-79
2022/01/21 07:16:58;;;;;;;;;3.00;2.00;;;;;2.89;55.81;100183.53;5034766;28;45410;-78
2022/01/21 07:19:23;;;;;;;;;2.00;2.00;;;;;2.88;55.77;100194.81;5034428;28;46525;-79
2022/01/21 07:21:49;;;;;;;;;6.00;2.00;;;;;2.87;55.69;100199.13;5034432;28;45449;-78
2022/01/21 07:24:14;;;;;;;;;5.67;3.67;;;;;2.85;56.37;100200.00;5021537;28;46015;-78
2022/01/21 07:26:40;;;;;;;;;1.00;1.00;;;;;2.84;55.98;100193.06;5034239;28;45439;-78
2022/01/21 07:29:06;;;;;;;;;1.00;1.00;;;;;2.85;56.00;100211.28;5030613;28;45987;-78
2022/01/21 07:31:31;;;;;;;;;2.00;2.00;;;;;2.85;55.97;100219.06;5034617;28;45461;-79
2022/01/21 07:33:58;;;;;;;;;3.67;1.00;;;;;2.86;55.79;100218.22;5034127;28;45200;-79
2022/01/21 07:36:24;;;;;;;;;6.00;3.00;;;;;2.86;56.19;100218.22;5026553;28;45396;-79
2022/01/21 07:38:49;;;;;;;;;2.67;2.00;;;;;2.88;55.40;100231.25;5029306;28;45318;-79
2022/01/21 07:41:15;;;;;;;;;0.00;0.00;;;;;2.89;55.22;100217.38;5034471;28;45418;-79
2022/01/21 07:43:40;;;;;;;;;3.00;1.67;;;;;2.89;54.36;100233.88;5034471;28;45345;-79
2022/01/21 07:46:06;;;;;;;;;1.00;1.00;;;;;2.89;54.99;100249.50;5034432;28;45535;-79
2022/01/21 07:48:31;;;;;;;;;2.33;2.33;;;;;2.89;54.98;100244.28;5018936;28;45409;-79
2022/01/21 07:50:57;;;;;;;;;2.00;2.00;;;;;2.90;55.42;100252.97;5022744;28;45489;-79
2022/01/21 07:53:22;;;;;;;;;2.00;2.00;;;;;2.92;54.67;100253.88;5000971;28;45522;-79
2022/01/21 07:55:50;;;;;;;;;1.00;1.00;;;;;2.93;54.69;100251.28;5004608;28;45427;-79
2022/01/21 07:58:17;;;;;;;;;5.00;2.00;;;;;2.98;54.91;100248.72;5032287;28;46171;-78
2022/01/21 08:00:43;;;;;;;;;5.00;4.33;;;;;2.95;54.86;100239.16;5034418;28;45473;-78
2022/01/21 08:03:08;;;;;;;;;6.00;5.00;;;;;2.96;54.32;100246.09;5031976;28;45341;-79
2022/01/21 08:05:34;;;;;;;;;1.00;1.00;;;;;2.98;54.60;100239.19;5023045;28;45524;-78
2022/01/21 08:08:01;;;;;;;;;2.00;2.00;;;;;3.01;54.68;100233.13;5020319;28;45430;-79
2022/01/21 08:10:27;;;;;;;;;1.33;1.33;;;;;3.00;55.21;100247.88;5034418;28;45448;-80
2022/01/21 08:12:52;;;;;;;;;2.00;2.00;;;;;2.99;54.97;100250.47;5033899;28;45397;-78
2022/01/21 08:15:18;;;;;;;;;3.00;3.00;;;;;2.99;53.66;100245.25;5007525;28;45453;-79
2022/01/21 08:17:44;;;;;;;;;6.67;2.00;;;;;2.98;55.20;100243.53;5027555;28;46173;-79
2022/01/21 08:20:10;;;;;;;;;7.00;5.33;;;;;2.97;55.45;100241.78;5022694;28;45780;-79
2022/01/21 08:22:35;;;;;;;;;0.67;0.67;;;;;2.98;54.89;100253.94;5033523;28;45510;-79
2022/01/21 08:25:01;;;;;;;;;4.33;2.00;;;;;2.99;54.81;100271.31;5033539;28;45469;-79
2022/01/21 08:27:26;;;;;;;;;1.33;1.00;;;;;3.01;54.86;100246.16;5030248;28;46845;-79
2022/01/21 08:29:52;;;;;;;;;2.33;2.00;;;;;3.03;54.95;100258.31;5031298;28;45379;-79
2022/01/21 08:32:19;;;;;;;;;7.33;5.00;;;;;3.09;54.78;100239.25;5033485;28;45344;-79
2022/01/21 08:34:44;;;;;;;;;5.67;3.00;;;;;3.14;54.48;100245.38;5004569;28;45489;-79
2022/01/21 08:37:10;;;;;;;;;7.00;5.67;;;;;3.19;54.79;100250.59;5020174;28;46166;-79
2022/01/21 08:39:35;;;;;;;;;5.67;3.67;;;;;3.19;54.17;100276.66;5025467;28;45503;-78
2022/01/21 08:42:03;;;;;;;;;4.33;3.00;;;;;3.23;54.19;100247.16;5030821;28;45469;-79
2022/01/21 08:44:28;;;;;;;;;2.00;2.00;;;;;3.25;54.00;100256.75;5021949;28;45459;-78
2022/01/21 08:46:54;;;;;;;;;6.00;5.33;;;;;3.27;54.67;100257.63;5019713;28;46414;-79
2022/01/21 08:49:21;;;;;;;;;2.67;2.67;;;;;3.31;54.67;100272.44;5041206;28;45457;-79
2022/01/21 08:51:52;;;;;;;;;4.33;3.00;;;;;3.33;54.36;100275.06;5035141;28;45373;-79
2022/01/21 08:54:18;;;;;;;;;3.33;2.00;;;;;3.31;54.25;100277.66;5033271;28;45504;-79
2022/01/21 08:56:46;;;;;;;;;2.33;2.33;;;;;3.29;54.34;100276.78;5018422;28;47540;-65
2022/01/21 08:59:11;;;;;;;;;2.33;1.00;;;;;3.36;54.67;100286.34;5031378;28;45503;-64
2022/01/21 09:01:37;;;;;;;;;5.00;5.00;;;;;3.34;54.81;100282.91;5033344;28;45475;-64
2022/01/21 09:04:02;;;;;;;;;5.67;5.67;;;;;3.36;54.83;100281.16;5026233;28;45418;-64
2022/01/21 09:06:29;;;;;;;;;2.33;2.33;;;;;3.36;54.53;100282.88;5035750;28;45354;-64
2022/01/21 09:08:57;;;;;;;;;7.33;5.33;;;;;3.33;54.97;100293.31;5045443;28;45338;-64
2022/01/21 09:11:23;;;;;;;;;6.67;5.33;;;;;3.32;54.72;100302.88;5029703;28;45488;-64
2022/01/21 09:13:49;;;;;;;;;5.00;3.00;;;;;3.31;54.68;100298.50;5025368;28;45462;-63
2022/01/21 09:16:16;;;;;;;;;3.00;2.67;;;;;3.31;55.05;100301.13;5023745;28;45987;-64
2022/01/21 09:18:51;;;;;;;;;2.00;2.00;;;;;3.32;54.93;100318.50;5028598;28;45382;-63
2022/01/21 09:21:20;;;;;;;;;2.00;1.00;;;;;3.36;54.66;100325.44;5035325;28;45413;-63
2022/01/21 09:23:48;;;;;;;;;7.00;6.00;;;;;3.41;54.97;100308.13;5034614;28;45306;-64
2022/01/21 09:26:15;;;;;;;;;3.33;2.00;;;;;3.46;54.72;100334.25;5014602;28;45626;-63
2022/01/21 09:28:41;;;;;;;;;3.00;3.00;;;;;3.49;54.45;100334.28;5028414;28;45403;-63
2022/01/21 09:31:07;;;;;;;;;3.67;3.00;;;;;3.49;54.99;100327.31;5048309;28;45304;-64
2022/01/21 09:33:32;;;;;;;;;6.33;5.67;;;;;3.52;54.22;100346.47;5043692;28;45566;-64
2022/01/21 09:35:58;;;;;;;;;4.33;2.00;;;;;3.53;54.82;100353.38;5036456;28;46518;-64
2022/01/21 09:38:25;;;;;;;;;10.00;5.67;;;;;3.52;54.65;100346.47;5036100;28;45717;-64
2022/01/21 09:40:51;;;;;;;;;6.00;4.00;;;;;3.54;54.65;100342.09;5038567;28;45563;-64
2022/01/21 09:43:18;;;;;;;;;6.00;6.00;;;;;3.54;54.28;100349.94;5045883;28;45524;-64
2022/01/21 09:45:51;;;;;;;;;2.67;2.67;;;;;3.54;54.88;100339.50;5037453;28;46376;-63
2022/01/21 09:48:21;;;;;;;;;4.33;2.33;;;;;3.56;54.50;100343.00;5034791;28;45461;-63
2022/01/21 09:50:48;;;;;;;;;5.67;3.00;;;;;3.64;55.22;100333.50;5036802;28;45473;-64
2022/01/21 09:53:15;;;;;;;;;4.67;4.67;;;;;3.70;54.81;100349.19;5035531;28;45495;-64
2022/01/21 09:55:40;;;;;;;;;6.00;5.00;;;;;3.73;54.58;100330.94;5018273;28;47660;-63
2022/01/21 09:58:08;;;;;;;;;2.00;2.00;;;;;3.77;55.10;100333.59;5036161;28;45369;-63
2022/01/21 10:00:34;;;;;;;;;6.33;5.00;;;;;3.85;54.79;100333.66;5036642;28;45403;-63
2022/01/21 10:03:04;;;;;;;;;4.67;4.67;;;;;3.92;55.08;100329.34;5035028;28;45665;-63
2022/01/21 10:05:31;;;;;;;;;7.67;3.67;;;;;3.97;54.62;100332.84;5036101;28;45474;-65
2022/01/21 10:07:59;;;;;;;;;8.33;5.00;;;;;3.99;54.29;100337.22;5034291;28;45404;-64
2022/01/21 10:10:24;;;;;;;;;8.33;7.00;;;;;4.00;54.43;100354.63;5036553;28;45449;-65
2022/01/21 10:13:00;;;;;;;;;7.00;7.00;;;;;3.98;53.78;100345.03;5035731;28;45407;-66
2022/01/21 10:15:26;;;;;;;;;5.00;5.00;;;;;3.97;53.88;100356.34;5034481;28;45739;-65
2022/01/21 10:18:11;;;;;;;;;5.33;5.33;;;;;3.97;54.50;100349.38;5034534;28;45391;-64
2022/01/21 10:20:36;;;;;;;;;3.67;3.67;;;;;3.97;54.23;100356.34;5035786;28;45374;-65
2022/01/21 10:23:07;;;;;;;;;6.33;5.67;;;;;3.97;54.40;100356.34;5034984;28;45384;-65
2022/01/21 10:25:35;;;;;;;;;4.67;4.67;;;;;4.00;54.21;100358.97;5035664;28;46856;-65
2022/01/21 10:28:19;;;;;;;;;6.00;6.00;;;;;4.04;54.21;100361.59;5035401;28;45419;-63
2022/01/21 10:30:46;;;;;;;;;6.33;6.33;;;;;4.09;54.02;100356.41;5035718;28;45301;-65
2022/01/21 10:33:26;;;;;;;;;4.33;4.33;;;;;4.12;53.91;100364.25;5035431;28;45501;-65
2022/01/21 10:36:30;;;;;;;;;11.33;7.67;;;;;4.13;54.08;100364.25;5028520;28;46221;-64
2022/01/21 10:39:29;;;;;;;;;5.00;5.00;;;;;4.13;54.45;100348.59;4985005;28;45523;-62
2022/01/21 10:41:57;;;;;;;;;4.00;4.00;;;;;4.15;53.95;100353.84;5043604;28;45402;-62
2022/01/21 10:44:28;;;;;;;;;7.00;5.00;;;;;4.16;54.11;100364.28;5045725;28;45523;-62
2022/01/21 10:47:11;;;;;;;;;6.00;3.33;;;;;4.16;54.41;100369.50;5033296;28;45574;-65
2022/01/21 10:49:40;;;;;;;;;4.33;4.33;;;;;4.19;54.33;100364.28;5040905;28;45393;-63
2022/01/21 10:52:09;;;;;;;;;5.33;5.33;;;;;4.21;54.34;100352.13;5017229;28;45384;-65
2022/01/21 10:54:42;;;;;;;;;8.00;8.00;;;;;4.21;53.31;100380.81;5035138;28;45558;-64
2022/01/21 10:57:12;;;;;;;;;3.00;3.00;;;;;4.23;54.18;100367.78;5035003;28;46178;-64
2022/01/21 10:59:47;;;;;;;;;9.33;5.33;;;;;4.21;54.03;100361.69;5034892;28;45470;-64
2022/01/21 11:02:13;;;;;;;;;6.33;6.33;;;;;4.25;53.66;100366.06;5035029;28;45507;-64
2022/01/21 11:04:43;;;;;;;;;7.00;5.67;;;;;4.29;53.48;100385.22;5034976;28;45538;-64
2022/01/21 11:07:11;;;;;;;;;3.00;3.00;;;;;4.30;53.53;100380.00;5033087;28;45385;-64
2022/01/21 11:09:39;;;;;;;;;8.67;7.00;;;;;4.32;53.97;100386.13;5032919;28;45459;-64
2022/01/21 11:12:14;;;;;;;;;5.67;3.33;;;;;4.36;54.12;100373.94;5034091;28;45431;-64
2022/01/21 11:15:00;;;;;;;;;7.00;4.33;;;;;4.40;52.15;100384.41;5034480;28;45525;-64
2022/01/21 11:17:26;;;;;;;;;3.00;3.00;;;;;4.43;52.20;100380.94;5034554;28;45477;-64
2022/01/21 11:20:16;;;;;;;;;3.00;3.00;;;;;4.48;52.64;100368.78;5034556;28;45351;-63
2022/01/21 11:22:55;;;;;;;;;3.00;3.00;;;;;4.54;52.98;100364.44;5033974;28;45445;-64
2022/01/21 11:25:40;;;;;;;;;4.00;3.00;;;;;4.65;51.67;100377.56;5032992;28;45356;-63
2022/01/21 11:28:06;;;;;;;;;1.00;1.00;;;;;4.71;51.82;100377.56;5040905;28;46329;-63
2022/01/21 11:30:32;;;;;;;;;3.33;3.00;;;;;4.74;51.47;100369.75;5034532;28;45351;-63
2022/01/21 11:32:57;;;;;;;;;7.00;4.67;;;;;4.78;51.22;100387.19;5016957;28;45405;-63
2022/01/21 11:35:23;;;;;;;;;8.00;6.00;;;;;4.81;50.76;100370.66;5034181;28;45307;-63
2022/01/21 11:37:49;;;;;;;;;8.00;7.00;;;;;4.86;51.39;100371.53;5034301;28;45590;-63
2022/01/21 11:40:15;;;;;;;;;8.33;5.33;;;;;4.91;52.12;100367.19;5034317;28;45346;-63
2022/01/21 11:42:41;;;;;;;;;5.33;5.33;;;;;5.01;52.37;100366.38;5034778;28;45734;-63
2022/01/21 11:45:20;;;;;;;;;3.33;3.33;;;;;5.12;51.02;100364.63;5034503;28;45405;-63
2022/01/21 11:48:12;;;;;;;;;3.00;3.00;;;;;5.18;51.22;100375.13;5032665;28;46262;-65
2022/01/21 11:50:36;;;;;;;;;5.33;4.00;;;;;5.25;50.69;100376.84;5034059;28;45459;-63
2022/01/21 11:53:02;;;;;;;;;4.00;4.00;;;;;5.32;50.52;100369.91;5034245;28;45490;-63
2022/01/21 11:55:46;;;;;;;;;9.00;8.00;;;;;5.40;50.41;100369.88;5034202;28;45407;-64
2022/01/21 11:58:21;;;;;;;;;3.00;3.00;;;;;5.48;49.47;100374.28;5033030;28;45365;-63
2022/01/21 12:00:49;;;;;;;;;2.67;2.67;;;;;5.54;50.73;100376.88;5033909;28;45428;-63
2022/01/21 12:03:18;;;;;;;;;6.33;4.67;;;;;5.59;50.47;100367.28;5032342;28;45386;-63
2022/01/21 12:05:44;;;;;;;;;2.33;2.33;;;;;5.67;49.46;100369.91;5034620;28;45343;-63
2022/01/21 12:08:09;;;;;;;;;11.67;7.00;;;;;5.69;49.83;100364.69;5040649;28;48259;-63
2022/01/21 12:10:37;;;;;;;;;6.33;5.00;;;;;5.70;48.87;100374.28;5018221;28;45326;-63
2022/01/21 12:13:13;;;;;;;;;3.00;3.00;;;;;5.69;49.17;100370.78;5034299;28;45651;-63
2022/01/21 12:15:48;;;;;;;;;6.67;6.67;;;;;5.70;48.52;100379.50;5034394;28;45430;-63
2022/01/21 12:21:04;;;;;;;;;4.00;4.00;;;;;5.75;49.46;100364.66;5034076;28;45562;-63
2022/01/21 12:23:41;;;;;;;;;7.00;4.00;;;;;5.85;49.10;100362.06;5041117;28;45391;-63
2022/01/21 12:26:16;;;;;;;;;5.67;5.67;;;;;5.95;50.24;100369.03;5037906;28;45405;-63
2022/01/21 12:28:54;;;;;;;;;5.00;3.00;;;;;6.07;49.31;100367.25;5038949;28;45708;-63
2022/01/21 12:31:22;;;;;;;;;7.00;7.00;;;;;6.17;50.18;100364.66;5043021;28;45416;-63